createdAt,value
2022-11-05T00:00:35.867Z,0.00
2022-11-05T00:01:36.127Z,0.00
2022-11-05T00:02:36.211Z,0.00
2022-11-05T00:03:36.440Z,0.00
2022-11-05T00:04:36.571Z,0.00
2022-11-05T00:05:36.732Z,0.00
2022-11-05T00:06:36.891Z,0.00
2022-11-05T00:07:37.053Z,0.00
2022-11-05T00:08:37.242Z,0.00
2022-11-05T00:09:37.421Z,0.00
2022-11-05T00:10:37.590Z,0.00
2022-11-05T00:11:37.742Z,0.00
2022-11-05T00:12:37.901Z,0.00
2022-11-05T00:13:38.061Z,0.00
2022-11-05T00:14:38.246Z,0.00
2022-11-05T00:15:38.412Z,0.00
2022-11-05T00:16:38.561Z,0.00
2022-11-05T00:17:38.731Z,0.00
2022-11-05T00:18:38.891Z,0.00
2022-11-05T00:19:39.061Z,0.00
2022-11-05T00:20:39.230Z,0.00
2022-11-05T00:21:39.389Z,0.00
2022-11-05T00:22:39.584Z,0.00
2022-11-05T00:23:39.739Z,0.00
2022-11-05T00:24:39.980Z,0.00
2022-11-05T00:25:40.121Z,0.00
2022-11-05T00:26:40.282Z,0.00
2022-11-05T00:27:40.440Z,0.00
2022-11-05T00:28:40.606Z,0.00
2022-11-05T00:29:40.773Z,0.00
2022-11-05T00:30:40.940Z,0.00
2022-11-05T00:31:41.110Z,0.00
2022-11-05T00:32:41.270Z,0.00
2022-11-05T00:33:41.479Z,0.00
2022-11-05T00:34:41.640Z,0.00
2022-11-05T00:35:41.798Z,0.00
2022-11-05T00:36:41.951Z,0.00
2022-11-05T00:37:47.144Z,0.00
2022-11-05T00:38:43.321Z,0.00
2022-11-05T00:39:42.491Z,0.00
2022-11-05T00:40:42.650Z,0.00
2022-11-05T00:41:42.811Z,0.00
2022-11-05T00:42:43.012Z,0.00
2022-11-05T00:43:43.187Z,0.00
2022-11-05T00:44:43.352Z,0.00
2022-11-05T00:45:43.510Z,0.00
2022-11-05T00:46:43.669Z,0.00
2022-11-05T00:47:43.831Z,0.00
2022-11-05T00:48:44.012Z,0.00
2022-11-05T00:49:44.180Z,0.00
2022-11-05T00:50:44.339Z,0.00
2022-11-05T00:51:44.500Z,0.00
2022-11-05T00:52:44.660Z,0.00
2022-11-05T00:53:44.841Z,0.00
2022-11-05T00:54:45.000Z,0.00
2022-11-05T00:55:45.171Z,0.00
2022-11-05T00:56:45.319Z,0.00
2022-11-05T00:57:45.481Z,0.00
2022-11-05T00:58:45.682Z,0.00
2022-11-05T00:59:45.810Z,0.00
2022-11-05T01:00:45.970Z,0.00
2022-11-05T01:01:46.234Z,0.00
2022-11-05T01:02:46.466Z,0.00
2022-11-05T01:03:51.406Z,0.00
2022-11-05T01:04:47.698Z,0.00
2022-11-05T01:05:46.889Z,0.00
2022-11-05T01:06:47.055Z,0.00
2022-11-05T01:07:47.211Z,0.00
2022-11-05T01:08:47.390Z,0.00
2022-11-05T01:09:47.552Z,0.00
2022-11-05T01:10:47.728Z,0.00
2022-11-05T01:11:47.880Z,0.00
2022-11-05T01:12:48.070Z,0.00
2022-11-05T01:13:48.257Z,0.00
2022-11-05T01:14:48.417Z,0.00
2022-11-05T01:15:48.578Z,0.00
2022-11-05T01:16:48.773Z,0.00
2022-11-05T01:17:48.890Z,0.00
2022-11-05T01:18:49.110Z,0.00
2022-11-05T01:19:49.301Z,0.00
2022-11-05T01:20:49.469Z,0.00
2022-11-05T01:21:49.629Z,0.00
2022-11-05T01:22:49.799Z,0.00
2022-11-05T01:23:49.981Z,0.00
2022-11-05T01:24:50.143Z,0.00
2022-11-05T01:25:50.299Z,0.00
2022-11-05T01:26:50.499Z,0.00
2022-11-05T01:27:50.649Z,0.00
2022-11-05T01:28:50.895Z,0.00
2022-11-05T01:29:51.000Z,0.00
2022-11-05T01:30:51.159Z,0.00
2022-11-05T01:31:51.329Z,0.00
2022-11-05T01:32:51.489Z,0.00
2022-11-05T01:33:51.659Z,0.00
2022-11-05T01:34:51.828Z,0.00
2022-11-05T01:35:51.990Z,0.00
2022-11-05T01:36:52.149Z,0.00
2022-11-05T01:37:52.329Z,0.00
2022-11-05T01:38:52.499Z,0.00
2022-11-05T01:39:52.656Z,0.00
2022-11-05T01:40:52.850Z,0.00
2022-11-05T01:41:53.009Z,0.00
2022-11-05T01:42:53.216Z,0.00
2022-11-05T01:43:53.372Z,0.00
2022-11-05T01:44:53.538Z,0.00
2022-11-05T01:45:53.700Z,0.00
2022-11-05T01:46:53.880Z,0.00
2022-11-05T01:47:54.057Z,0.00
2022-11-05T01:48:58.558Z,0.00
2022-11-05T01:49:55.388Z,0.00
2022-11-05T01:50:54.579Z,0.00
2022-11-05T01:51:54.739Z,0.00
2022-11-05T01:52:54.922Z,0.00
2022-11-05T01:53:55.079Z,0.00
2022-11-05T01:54:55.248Z,0.00
2022-11-05T01:55:55.428Z,0.00
2022-11-05T01:56:55.628Z,0.00
2022-11-05T01:57:55.820Z,0.00
2022-11-05T01:58:55.949Z,0.00
2022-11-05T01:59:56.119Z,0.00
2022-11-05T02:00:56.278Z,0.00
2022-11-05T02:01:56.571Z,0.00
2022-11-05T02:02:56.690Z,0.00
2022-11-05T02:03:56.778Z,0.00
2022-11-05T02:04:56.948Z,0.00
2022-11-05T02:05:57.129Z,0.00
2022-11-05T02:06:57.298Z,0.00
2022-11-05T02:07:57.479Z,0.00
2022-11-05T02:08:57.638Z,0.00
2022-11-05T02:09:57.798Z,0.00
2022-11-05T02:10:57.966Z,0.00
2022-11-05T02:11:58.118Z,0.00
2022-11-05T02:12:58.308Z,0.00
2022-11-05T02:13:58.479Z,0.00
2022-11-05T02:14:58.648Z,0.00
2022-11-05T02:15:58.798Z,0.00
2022-11-05T02:16:59.002Z,0.00
2022-11-05T02:17:59.168Z,0.00
2022-11-05T02:18:59.328Z,0.00
2022-11-05T02:19:59.498Z,0.00
2022-11-05T02:20:59.661Z,0.00
2022-11-05T02:21:59.855Z,0.00
2022-11-05T02:23:00.035Z,0.00
2022-11-05T02:24:00.195Z,0.00
2022-11-05T02:25:00.360Z,0.00
2022-11-05T02:26:00.563Z,0.00
2022-11-05T02:27:00.729Z,0.00
2022-11-05T02:28:00.898Z,0.00
2022-11-05T02:29:01.054Z,0.00
2022-11-05T02:30:01.217Z,0.00
2022-11-05T02:31:01.380Z,0.00
2022-11-05T02:32:01.537Z,0.00
2022-11-05T02:33:01.716Z,0.00
2022-11-05T02:34:01.875Z,0.00
2022-11-05T02:35:02.042Z,0.00
2022-11-05T02:36:02.235Z,0.00
2022-11-05T02:37:02.388Z,0.00
2022-11-05T02:38:02.567Z,0.00
2022-11-05T02:39:02.738Z,0.00
2022-11-05T02:40:02.905Z,0.00
2022-11-05T02:41:03.056Z,0.00
2022-11-05T02:42:05.168Z,0.00
2022-11-05T02:43:03.448Z,0.00
2022-11-05T02:44:03.608Z,0.00
2022-11-05T02:45:03.766Z,0.00
2022-11-05T02:46:03.936Z,0.00
2022-11-05T02:47:04.126Z,0.00
2022-11-05T02:48:04.288Z,0.00
2022-11-05T02:49:04.450Z,0.00
2022-11-05T02:50:04.610Z,0.00
2022-11-05T02:51:04.766Z,0.00
2022-11-05T02:52:04.988Z,0.00
2022-11-05T02:53:05.156Z,0.00
2022-11-05T02:54:05.316Z,0.00
2022-11-05T02:55:05.488Z,0.00
2022-11-05T02:56:05.638Z,0.00
2022-11-05T02:57:05.805Z,0.00
2022-11-05T02:58:05.983Z,0.00
2022-11-05T02:59:06.127Z,0.00
2022-11-05T03:00:06.287Z,0.00
2022-11-05T03:01:06.447Z,0.00
2022-11-05T03:02:06.705Z,0.00
2022-11-05T03:03:06.786Z,0.00
2022-11-05T03:04:06.946Z,0.00
2022-11-05T03:05:07.113Z,0.00
2022-11-05T03:06:07.274Z,0.00
2022-11-05T03:07:07.457Z,0.00
2022-11-05T03:08:07.646Z,0.00
2022-11-05T03:09:07.812Z,0.00
2022-11-05T03:10:07.998Z,0.00
2022-11-05T03:11:08.156Z,0.00
2022-11-05T03:12:08.356Z,0.00
2022-11-05T03:13:08.922Z,0.00
2022-11-05T03:14:08.719Z,0.00
2022-11-05T03:15:08.870Z,0.00
2022-11-05T03:16:09.076Z,0.00
2022-11-05T03:17:09.246Z,0.00
2022-11-05T03:18:09.406Z,0.00
2022-11-05T03:19:09.566Z,0.00
2022-11-05T03:20:09.733Z,0.00
2022-11-05T03:21:09.896Z,0.00
2022-11-05T03:22:10.066Z,0.00
2022-11-05T03:23:10.455Z,0.00
2022-11-05T03:24:10.428Z,0.00
2022-11-05T03:25:10.588Z,0.00
2022-11-05T03:26:10.746Z,0.00
2022-11-05T03:27:10.912Z,0.00
2022-11-05T03:28:11.085Z,0.00
2022-11-05T03:29:11.245Z,0.00
2022-11-05T03:30:11.408Z,0.00
2022-11-05T03:31:11.564Z,0.00
2022-11-05T03:32:11.736Z,0.00
2022-11-05T03:33:12.408Z,0.00
2022-11-05T03:34:12.065Z,0.00
2022-11-05T03:35:12.237Z,0.00
2022-11-05T03:36:12.392Z,0.00
2022-11-05T03:37:12.544Z,0.00
2022-11-05T03:38:12.745Z,0.00
2022-11-05T03:39:12.875Z,0.00
2022-11-05T03:40:13.043Z,0.00
2022-11-05T03:41:13.194Z,0.00
2022-11-05T03:42:13.407Z,0.00
2022-11-05T03:43:13.878Z,0.00
2022-11-05T03:44:13.735Z,0.00
2022-11-05T03:45:13.908Z,0.00
2022-11-05T03:46:14.068Z,0.00
2022-11-05T03:47:14.233Z,0.00
2022-11-05T03:48:14.452Z,0.00
2022-11-05T03:49:14.579Z,0.00
2022-11-05T03:50:14.734Z,0.00
2022-11-05T03:51:14.897Z,0.00
2022-11-05T03:52:15.086Z,0.00
2022-11-05T03:53:15.270Z,0.00
2022-11-05T03:54:15.445Z,0.00
2022-11-05T03:55:15.595Z,0.00
2022-11-05T03:56:15.762Z,0.00
2022-11-05T03:57:15.914Z,0.00
2022-11-05T03:58:16.125Z,0.00
2022-11-05T03:59:16.284Z,0.00
2022-11-05T04:00:16.444Z,0.00
2022-11-05T04:01:16.682Z,0.00
2022-11-05T04:02:16.876Z,0.00
2022-11-05T04:03:16.962Z,0.00
2022-11-05T04:04:17.130Z,0.00
2022-11-05T04:05:17.275Z,0.00
2022-11-05T04:06:17.473Z,0.00
2022-11-05T04:07:17.626Z,0.00
2022-11-05T04:08:17.841Z,0.00
2022-11-05T04:09:18.004Z,0.00
2022-11-05T04:10:18.177Z,0.00
2022-11-05T04:11:18.324Z,0.00
2022-11-05T04:12:18.523Z,0.00
2022-11-05T04:13:18.693Z,0.00
2022-11-05T04:14:18.853Z,0.00
2022-11-05T04:15:19.014Z,0.00
2022-11-05T04:16:19.174Z,0.00
2022-11-05T04:17:19.334Z,0.00
2022-11-05T04:18:19.521Z,0.00
2022-11-05T04:19:25.191Z,0.00
2022-11-05T04:20:20.864Z,0.00
2022-11-05T04:21:20.044Z,0.00
2022-11-05T04:22:20.242Z,0.00
2022-11-05T04:23:20.415Z,0.00
2022-11-05T04:24:20.572Z,0.00
2022-11-05T04:25:20.743Z,0.00
2022-11-05T04:26:20.912Z,0.00
2022-11-05T04:27:21.079Z,0.00
2022-11-05T04:28:21.250Z,0.00
2022-11-05T04:29:21.402Z,0.00
2022-11-05T04:30:21.882Z,0.00
2022-11-05T04:31:21.733Z,0.00
2022-11-05T04:32:21.892Z,0.00
2022-11-05T04:33:22.073Z,0.00
2022-11-05T04:34:22.314Z,0.00
2022-11-05T04:35:22.424Z,0.00
2022-11-05T04:36:22.601Z,0.00
2022-11-05T04:37:22.764Z,0.00
2022-11-05T04:38:22.943Z,0.00
2022-11-05T04:39:23.106Z,0.00
2022-11-05T04:40:23.271Z,0.00
2022-11-05T04:41:23.432Z,0.00
2022-11-05T04:42:23.600Z,0.00
2022-11-05T04:43:24.183Z,0.00
2022-11-05T04:44:23.941Z,0.00
2022-11-05T04:45:24.106Z,0.00
2022-11-05T04:46:24.290Z,0.00
2022-11-05T04:47:24.462Z,0.00
2022-11-05T04:48:24.658Z,0.00
2022-11-05T04:49:24.812Z,0.00
2022-11-05T04:50:24.989Z,0.00
2022-11-05T04:51:25.143Z,0.00
2022-11-05T04:52:25.309Z,0.00
2022-11-05T04:53:25.482Z,0.00
2022-11-05T04:54:25.653Z,0.00
2022-11-05T04:55:25.823Z,0.00
2022-11-05T04:56:26.001Z,0.00
2022-11-05T04:57:26.169Z,0.00
2022-11-05T04:58:26.341Z,0.00
2022-11-05T04:59:26.519Z,0.00
2022-11-05T05:00:26.839Z,0.00
2022-11-05T05:01:26.949Z,0.00
2022-11-05T05:02:27.022Z,0.00
2022-11-05T05:03:27.190Z,0.00
2022-11-05T05:04:27.360Z,0.00
2022-11-05T05:05:27.513Z,0.00
2022-11-05T05:06:27.711Z,0.00
2022-11-05T05:07:27.862Z,0.00
2022-11-05T05:08:28.090Z,0.00
2022-11-05T05:09:28.211Z,0.00
2022-11-05T05:10:28.410Z,0.00
2022-11-05T05:11:28.569Z,0.00
2022-11-05T05:12:28.790Z,0.00
2022-11-05T05:13:28.921Z,0.00
2022-11-05T05:14:29.083Z,0.00
2022-11-05T05:15:29.242Z,0.00
2022-11-05T05:16:29.441Z,0.00
2022-11-05T05:17:29.605Z,0.00
2022-11-05T05:18:29.775Z,0.00
2022-11-05T05:19:29.943Z,0.00
2022-11-05T05:20:30.122Z,0.00
2022-11-05T05:21:30.280Z,0.00
2022-11-05T05:22:30.461Z,0.00
2022-11-05T05:23:30.622Z,0.00
2022-11-05T05:24:30.810Z,0.00
2022-11-05T05:25:30.983Z,0.00
2022-11-05T05:26:31.175Z,0.00
2022-11-05T05:27:31.300Z,0.00
2022-11-05T05:28:31.488Z,0.00
2022-11-05T05:29:31.644Z,0.00
2022-11-05T05:30:31.818Z,0.00
2022-11-05T05:31:31.974Z,0.00
2022-11-05T05:32:32.131Z,0.00
2022-11-05T05:33:32.306Z,0.00
2022-11-05T05:34:32.481Z,0.00
2022-11-05T05:35:32.630Z,0.00
2022-11-05T05:36:32.797Z,0.00
2022-11-05T05:37:32.951Z,0.00
2022-11-05T05:38:33.138Z,0.00
2022-11-05T05:39:33.301Z,0.00
2022-11-05T05:40:33.489Z,4.00
2022-11-05T05:41:33.650Z,4.00
2022-11-05T05:42:36.388Z,0.00
2022-11-05T05:43:34.998Z,4.00
2022-11-05T05:44:34.139Z,4.00
2022-11-05T05:45:34.311Z,4.00
2022-11-05T05:46:34.459Z,8.00
2022-11-05T05:47:34.619Z,8.00
2022-11-05T05:48:34.801Z,8.00
2022-11-05T05:49:34.976Z,12.00
2022-11-05T05:50:35.149Z,12.00
2022-11-05T05:51:35.328Z,16.00
2022-11-05T05:52:35.508Z,16.00
2022-11-05T05:53:35.698Z,20.00
2022-11-05T05:54:41.308Z,20.00
2022-11-05T05:55:37.017Z,24.00
2022-11-05T05:56:36.188Z,28.00
2022-11-05T05:57:36.369Z,36.00
2022-11-05T05:58:36.568Z,44.00
2022-11-05T05:59:36.738Z,48.00
2022-11-05T06:00:36.920Z,52.00
2022-11-05T06:01:37.262Z,60.00
2022-11-05T06:02:37.448Z,68.00
2022-11-05T06:03:37.458Z,76.00
2022-11-05T06:04:37.628Z,80.00
2022-11-05T06:05:37.778Z,92.00
2022-11-05T06:06:37.982Z,100.00
2022-11-05T06:07:38.111Z,112.00
2022-11-05T06:08:38.295Z,124.00
2022-11-05T06:09:38.468Z,132.00
2022-11-05T06:10:38.762Z,144.00
2022-11-05T06:11:38.818Z,156.00
2022-11-05T06:12:39.023Z,168.00
2022-11-05T06:13:39.235Z,180.00
2022-11-05T06:14:39.347Z,192.00
2022-11-05T06:15:39.510Z,208.00
2022-11-05T06:16:39.656Z,220.00
2022-11-05T06:17:39.867Z,232.00
2022-11-05T06:18:40.041Z,248.00
2022-11-05T06:19:40.194Z,260.00
2022-11-05T06:20:40.357Z,276.00
2022-11-05T06:21:40.511Z,292.00
2022-11-05T06:22:40.707Z,316.00
2022-11-05T06:23:40.885Z,332.00
2022-11-05T06:24:41.047Z,356.00
2022-11-05T06:25:41.659Z,388.00
2022-11-05T06:26:41.427Z,416.00
2022-11-05T06:27:41.587Z,448.00
2022-11-05T06:28:41.788Z,492.00
2022-11-05T06:29:41.928Z,536.00
2022-11-05T06:30:42.118Z,580.00
2022-11-05T06:31:42.310Z,632.00
2022-11-05T06:32:42.479Z,696.00
2022-11-05T06:33:42.678Z,756.00
2022-11-05T06:34:42.854Z,820.00
2022-11-05T06:35:42.995Z,884.00
2022-11-05T06:36:43.174Z,948.00
2022-11-05T06:37:43.393Z,1016.00
2022-11-05T06:38:43.514Z,1080.00
2022-11-05T06:39:44.637Z,1140.00
2022-11-05T06:40:43.854Z,1204.00
2022-11-05T06:42:11.984Z,1256.00
2022-11-05T06:42:45.224Z,1312.00
2022-11-05T06:43:44.363Z,1364.00
2022-11-05T06:44:44.525Z,1416.00
2022-11-05T06:45:44.702Z,1464.00
2022-11-05T06:46:48.490Z,1516.00
2022-11-05T06:47:45.088Z,1564.00
2022-11-05T06:48:45.216Z,1612.00
2022-11-05T06:49:45.415Z,1644.00
2022-11-05T06:50:45.575Z,1680.00
2022-11-05T06:51:45.765Z,1708.00
2022-11-05T06:52:45.944Z,1728.00
2022-11-05T06:53:46.094Z,1748.00
2022-11-05T06:54:46.277Z,1764.00
2022-11-05T06:55:46.468Z,1780.00
2022-11-05T06:56:46.624Z,1800.00
2022-11-05T06:57:46.826Z,1820.00
2022-11-05T06:58:47.003Z,1840.00
2022-11-05T06:59:47.214Z,1868.00
2022-11-05T07:00:47.457Z,1892.00
2022-11-05T07:01:47.683Z,1920.00
2022-11-05T07:02:47.726Z,1940.00
2022-11-05T07:03:47.879Z,1964.00
2022-11-05T07:04:48.063Z,1988.00
2022-11-05T07:05:48.250Z,2004.00
2022-11-05T07:06:48.403Z,2020.00
2022-11-05T07:07:48.613Z,2028.00
2022-11-05T07:08:48.754Z,2036.00
2022-11-05T07:09:48.933Z,2044.00
2022-11-05T07:10:49.126Z,2044.00
2022-11-05T07:11:49.282Z,2044.00
2022-11-05T07:12:49.474Z,2036.00
2022-11-05T07:13:49.644Z,2020.00
2022-11-05T07:14:49.783Z,2008.00
2022-11-05T07:15:49.984Z,1988.00
2022-11-05T07:16:50.133Z,1972.00
2022-11-05T07:17:50.323Z,1960.00
2022-11-05T07:18:50.453Z,1948.00
2022-11-05T07:19:50.643Z,1940.00
2022-11-05T07:20:50.837Z,1932.00
2022-11-05T07:21:50.994Z,1932.00
2022-11-05T07:22:51.184Z,1932.00
2022-11-05T07:23:51.349Z,1940.00
2022-11-05T07:24:51.551Z,1964.00
2022-11-05T07:25:51.685Z,2000.00
2022-11-05T07:26:51.844Z,2052.00
2022-11-05T07:27:52.044Z,2112.00
2022-11-05T07:28:52.194Z,2212.00
2022-11-05T07:29:52.373Z,2308.00
2022-11-05T07:30:52.562Z,2288.00
2022-11-05T07:31:52.827Z,2212.00
2022-11-05T07:32:52.965Z,2164.00
2022-11-05T07:33:53.082Z,2128.00
2022-11-05T07:34:53.266Z,2100.00
2022-11-05T07:35:53.452Z,2080.00
2022-11-05T07:36:53.701Z,2064.00
2022-11-05T07:37:53.815Z,2060.00
2022-11-05T07:38:59.912Z,2056.00
2022-11-05T07:39:55.155Z,2052.00
2022-11-05T07:40:54.336Z,2056.00
2022-11-05T07:41:54.533Z,2080.00
2022-11-05T07:42:54.684Z,2128.00
2022-11-05T07:43:54.854Z,2288.00
2022-11-05T07:44:55.005Z,2772.00
2022-11-05T07:45:55.213Z,3232.00
2022-11-05T07:46:55.393Z,3556.00
2022-11-05T07:47:55.552Z,3744.00
2022-11-05T07:48:55.742Z,3716.00
2022-11-05T07:49:55.904Z,3580.00
2022-11-05T07:50:56.083Z,3532.00
2022-11-05T07:51:56.283Z,3552.00
2022-11-05T07:52:56.423Z,3488.00
2022-11-05T07:53:56.655Z,3672.00
2022-11-05T07:54:56.772Z,3956.00
2022-11-05T07:55:56.953Z,4148.00
2022-11-05T07:56:57.161Z,4152.00
2022-11-05T07:57:57.302Z,4444.00
2022-11-05T07:58:57.463Z,4968.00
2022-11-05T07:59:57.655Z,5548.00
2022-11-05T08:00:57.898Z,6136.00
2022-11-05T08:01:58.127Z,6556.00
2022-11-05T08:03:05.594Z,6700.00
2022-11-05T08:03:59.342Z,6564.00
2022-11-05T08:04:58.537Z,5956.00
2022-11-05T08:05:58.723Z,5620.00
2022-11-05T08:06:58.882Z,5372.00
2022-11-05T08:07:59.042Z,5008.00
2022-11-05T08:08:59.192Z,4476.00
2022-11-05T08:09:59.373Z,4556.00
2022-11-05T08:10:59.552Z,4352.00
2022-11-05T08:12:03.014Z,4188.00
2022-11-05T08:12:59.903Z,4384.00
2022-11-05T08:14:00.052Z,4932.00
2022-11-05T08:15:00.234Z,6044.00
2022-11-05T08:16:00.384Z,7084.00
2022-11-05T08:17:00.556Z,7412.00
2022-11-05T08:18:00.692Z,7156.00
2022-11-05T08:19:00.873Z,6812.00
2022-11-05T08:20:01.073Z,6020.00
2022-11-05T08:21:01.222Z,5700.00
2022-11-05T08:22:01.427Z,5624.00
2022-11-05T08:23:01.596Z,5748.00
2022-11-05T08:24:01.779Z,5944.00
2022-11-05T08:25:06.579Z,6028.00
2022-11-05T08:26:03.168Z,6116.00
2022-11-05T08:27:02.302Z,5976.00
2022-11-05T08:28:02.487Z,5704.00
2022-11-05T08:29:02.642Z,5504.00
2022-11-05T08:30:02.824Z,5700.00
2022-11-05T08:31:03.022Z,5904.00
2022-11-05T08:32:03.172Z,5808.00
2022-11-05T08:33:03.353Z,6204.00
2022-11-05T08:34:03.545Z,6384.00
2022-11-05T08:35:03.724Z,6580.00
2022-11-05T08:36:03.977Z,6852.00
2022-11-05T08:37:04.064Z,7312.00
2022-11-05T08:38:04.248Z,7784.00
2022-11-05T08:39:04.415Z,8564.00
2022-11-05T08:40:04.601Z,9340.00
2022-11-05T08:41:04.772Z,9620.00
2022-11-05T08:42:04.941Z,9524.00
2022-11-05T08:43:05.121Z,9716.00
2022-11-05T08:44:05.293Z,10532.00
2022-11-05T08:45:05.465Z,11472.00
2022-11-05T08:46:05.647Z,12540.00
2022-11-05T08:47:05.831Z,12984.00
2022-11-05T08:48:06.004Z,12820.00
2022-11-05T08:49:06.185Z,12632.00
2022-11-05T08:50:06.373Z,13172.00
2022-11-05T08:51:06.553Z,13532.00
2022-11-05T08:52:06.735Z,13884.00
2022-11-05T08:53:06.903Z,14132.00
2022-11-05T08:54:07.108Z,13896.00
2022-11-05T08:55:07.285Z,15012.00
2022-11-05T08:56:07.484Z,15028.00
2022-11-05T08:57:07.624Z,14040.00
2022-11-05T08:58:07.813Z,14220.00
2022-11-05T08:59:07.994Z,15968.00
2022-11-05T09:00:08.172Z,17440.00
2022-11-05T09:01:08.428Z,18272.00
2022-11-05T09:02:08.710Z,18016.00
2022-11-05T09:03:09.384Z,18048.00
2022-11-05T09:04:08.879Z,19520.00
2022-11-05T09:05:09.153Z,20224.00
2022-11-05T09:06:09.246Z,20096.00
2022-11-05T09:07:09.417Z,19360.00
2022-11-05T09:08:09.606Z,19616.00
2022-11-05T09:09:09.776Z,20256.00
2022-11-05T09:10:09.965Z,20320.00
2022-11-05T09:11:10.156Z,20608.00
2022-11-05T09:12:12.957Z,21440.00
2022-11-05T09:13:16.582Z,21440.00
2022-11-05T09:14:11.698Z,22400.00
2022-11-05T09:15:10.859Z,22464.00
2022-11-05T09:16:11.056Z,22048.00
2022-11-05T09:17:11.227Z,23424.00
2022-11-05T09:18:11.406Z,25120.00
2022-11-05T09:19:11.566Z,26816.00
2022-11-05T09:20:11.765Z,28032.00
2022-11-05T09:21:11.946Z,27648.00
2022-11-05T09:22:12.141Z,27008.00
2022-11-05T09:23:12.714Z,26912.00
2022-11-05T09:24:12.487Z,26432.00
2022-11-05T09:25:12.675Z,26688.00
2022-11-05T09:26:12.857Z,25568.00
2022-11-05T09:27:13.107Z,23744.00
2022-11-05T09:28:16.422Z,22624.00
2022-11-05T09:29:14.628Z,21696.00
2022-11-05T09:30:13.651Z,21856.00
2022-11-05T09:31:13.737Z,22528.00
2022-11-05T09:32:13.926Z,23904.00
2022-11-05T09:33:14.234Z,25312.00
2022-11-05T09:34:14.288Z,25376.00
2022-11-05T09:35:14.458Z,25120.00
2022-11-05T09:36:14.658Z,23776.00
2022-11-05T09:37:14.808Z,17216.00
2022-11-05T09:38:14.992Z,11212.00
2022-11-05T09:39:15.141Z,8072.00
2022-11-05T09:40:15.349Z,5136.00
2022-11-05T09:41:15.478Z,3936.00
2022-11-05T09:42:15.629Z,3764.00
2022-11-05T09:43:15.802Z,3648.00
2022-11-05T09:44:15.986Z,3596.00
2022-11-05T09:45:16.168Z,3548.00
2022-11-05T09:46:16.369Z,3496.00
2022-11-05T09:47:16.508Z,3456.00
2022-11-05T09:48:16.698Z,3392.00
2022-11-05T09:49:16.839Z,3336.00
2022-11-05T09:50:17.019Z,3308.00
2022-11-05T09:51:23.417Z,3276.00
2022-11-05T09:52:18.396Z,3268.00
2022-11-05T09:53:17.561Z,3260.00
2022-11-05T09:54:17.700Z,3220.00
2022-11-05T09:55:17.878Z,3180.00
2022-11-05T09:56:18.087Z,3144.00
2022-11-05T09:57:18.279Z,3140.00
2022-11-05T09:58:18.478Z,3132.00
2022-11-05T09:59:18.636Z,3100.00
2022-11-05T10:00:18.777Z,3080.00
2022-11-05T10:01:19.073Z,3076.00
2022-11-05T10:02:19.188Z,3064.00
2022-11-05T10:03:19.300Z,3060.00
2022-11-05T10:04:19.501Z,3064.00
2022-11-05T10:05:19.710Z,3036.00
2022-11-05T10:06:19.862Z,3028.00
2022-11-05T10:07:20.050Z,3044.00
2022-11-05T10:08:20.201Z,3036.00
2022-11-05T10:09:20.381Z,3024.00
2022-11-05T10:10:20.611Z,3020.00
2022-11-05T10:11:20.739Z,3012.00
2022-11-05T10:12:20.926Z,3012.00
2022-11-05T10:13:21.108Z,3004.00
2022-11-05T10:14:21.300Z,2984.00
2022-11-05T10:15:21.460Z,2980.00
2022-11-05T10:16:21.611Z,2980.00
2022-11-05T10:17:21.789Z,2980.00
2022-11-05T10:18:21.968Z,2972.00
2022-11-05T10:19:22.189Z,2924.00
2022-11-05T10:20:22.348Z,2956.00
2022-11-05T10:21:44.128Z,2920.00
2022-11-05T10:22:23.765Z,2872.00
2022-11-05T10:23:22.839Z,2860.00
2022-11-05T10:24:23.025Z,2840.00
2022-11-05T10:25:23.228Z,2812.00
2022-11-05T10:26:23.375Z,2792.00
2022-11-05T10:27:23.556Z,2780.00
2022-11-05T10:28:23.737Z,2772.00
2022-11-05T10:29:23.909Z,2764.00
2022-11-05T10:30:24.110Z,2756.00
2022-11-05T10:31:24.262Z,2740.00
2022-11-05T10:32:24.457Z,2720.00
2022-11-05T10:33:24.620Z,2724.00
2022-11-05T10:34:24.805Z,2724.00
2022-11-05T10:35:24.987Z,2712.00
2022-11-05T10:36:25.171Z,2700.00
2022-11-05T10:37:25.359Z,2704.00
2022-11-05T10:38:25.558Z,2700.00
2022-11-05T10:39:25.728Z,2688.00
2022-11-05T10:40:25.909Z,2676.00
2022-11-05T10:41:26.100Z,2680.00
2022-11-05T10:42:26.289Z,2680.00
2022-11-05T10:43:26.472Z,2672.00
2022-11-05T10:44:26.664Z,2656.00
2022-11-05T10:45:26.861Z,2640.00
2022-11-05T10:46:27.001Z,2640.00
2022-11-05T10:47:27.180Z,2640.00
2022-11-05T10:48:27.369Z,2644.00
2022-11-05T10:49:27.587Z,2636.00
2022-11-05T10:50:27.718Z,2628.00
2022-11-05T10:51:27.909Z,2620.00
2022-11-05T10:52:28.071Z,2620.00
2022-11-05T10:53:28.251Z,2616.00
2022-11-05T10:54:28.438Z,2616.00
2022-11-05T10:55:28.599Z,2620.00
2022-11-05T10:56:28.802Z,2616.00
2022-11-05T10:57:28.981Z,2444.00
2022-11-05T10:58:29.176Z,2360.00
2022-11-05T10:59:29.320Z,2368.00
2022-11-05T11:00:29.511Z,2468.00
2022-11-05T11:01:29.766Z,2732.00
2022-11-05T11:02:29.840Z,3044.00
2022-11-05T11:03:30.000Z,3192.00
2022-11-05T11:04:34.930Z,2956.00
2022-11-05T11:05:31.375Z,2860.00
2022-11-05T11:06:30.518Z,2788.00
2022-11-05T11:07:30.700Z,2728.00
2022-11-05T11:08:30.881Z,2672.00
2022-11-05T11:09:31.083Z,2640.00
2022-11-05T11:10:31.253Z,2616.00
2022-11-05T11:11:31.414Z,2588.00
2022-11-05T11:12:32.437Z,2572.00
2022-11-05T11:13:31.791Z,2560.00
2022-11-05T11:14:31.931Z,2624.00
2022-11-05T11:15:32.163Z,2608.00
2022-11-05T11:16:32.301Z,2572.00
2022-11-05T11:17:32.483Z,2556.00
2022-11-05T11:18:38.846Z,2520.00
2022-11-05T11:19:33.852Z,2700.00
2022-11-05T11:20:33.053Z,2560.00
2022-11-05T11:21:33.211Z,2504.00
2022-11-05T11:22:33.350Z,2488.00
2022-11-05T11:23:33.544Z,2488.00
2022-11-05T11:24:33.733Z,2476.00
2022-11-05T11:25:33.921Z,2484.00
2022-11-05T11:26:34.080Z,2476.00
2022-11-05T11:27:34.245Z,2476.00
2022-11-05T11:28:34.412Z,2524.00
2022-11-05T11:29:34.596Z,2476.00
2022-11-05T11:30:34.770Z,2452.00
2022-11-05T11:31:34.960Z,2544.00
2022-11-05T11:32:35.149Z,2516.00
2022-11-05T11:33:35.340Z,2488.00
2022-11-05T11:34:35.520Z,2440.00
2022-11-05T11:35:35.710Z,2552.00
2022-11-05T11:36:35.875Z,2612.00
2022-11-05T11:37:36.042Z,2504.00
2022-11-05T11:38:36.261Z,2480.00
2022-11-05T11:39:36.401Z,2460.00
2022-11-05T11:40:36.578Z,2424.00
2022-11-05T11:41:36.723Z,2352.00
2022-11-05T11:42:36.901Z,2348.00
2022-11-05T11:43:37.089Z,2200.00
2022-11-05T11:44:37.263Z,2544.00
2022-11-05T11:45:37.507Z,2620.00
2022-11-05T11:46:37.595Z,2668.00
2022-11-05T11:47:37.804Z,2768.00
2022-11-05T11:48:37.967Z,2600.00
2022-11-05T11:49:38.159Z,2304.00
2022-11-05T11:50:38.327Z,2508.00
2022-11-05T11:51:38.473Z,2516.00
2022-11-05T11:52:38.645Z,2716.00
2022-11-05T11:53:38.830Z,2632.00
2022-11-05T11:54:39.002Z,2604.00
2022-11-05T11:55:39.201Z,2808.00
2022-11-05T11:56:39.379Z,3288.00
2022-11-05T11:57:39.563Z,2948.00
2022-11-05T11:58:39.775Z,2680.00
2022-11-05T12:00:07.325Z,2656.00
2022-11-05T12:00:41.112Z,3188.00
2022-11-05T12:01:40.324Z,2944.00
2022-11-05T12:02:40.517Z,2948.00
2022-11-05T12:03:40.631Z,3040.00
2022-11-05T12:04:40.803Z,3524.00
2022-11-05T12:05:40.974Z,3940.00
2022-11-05T12:06:41.153Z,3164.00
2022-11-05T12:07:41.328Z,2952.00
2022-11-05T12:08:45.244Z,2748.00
2022-11-05T12:09:41.710Z,2728.00
2022-11-05T12:10:41.935Z,2828.00
2022-11-05T12:11:42.090Z,2720.00
2022-11-05T12:12:42.232Z,2692.00
2022-11-05T12:13:42.422Z,2540.00
2022-11-05T12:14:46.433Z,2436.00
2022-11-05T12:15:42.752Z,2556.00
2022-11-05T12:16:42.901Z,2944.00
2022-11-05T12:17:43.084Z,2608.00
2022-11-05T12:18:43.262Z,2800.00
2022-11-05T12:19:43.454Z,2856.00
2022-11-05T12:20:43.642Z,3056.00
2022-11-05T12:21:58.918Z,2796.00
2022-11-05T12:22:44.982Z,2668.00
2022-11-05T12:23:44.201Z,2444.00
2022-11-05T12:24:44.333Z,2544.00
2022-11-05T12:25:44.532Z,2572.00
2022-11-05T12:26:44.711Z,2636.00
2022-11-05T12:27:44.893Z,2828.00
2022-11-05T12:29:12.331Z,2888.00
2022-11-05T12:29:46.272Z,2916.00
2022-11-05T12:30:45.441Z,2796.00
2022-11-05T12:31:45.611Z,2708.00
2022-11-05T12:32:45.814Z,2448.00
2022-11-05T12:33:45.933Z,2672.00
2022-11-05T12:34:46.096Z,2952.00
2022-11-05T12:35:49.019Z,4044.00
2022-11-05T12:36:46.442Z,4508.00
2022-11-05T12:37:46.651Z,4004.00
2022-11-05T12:38:46.814Z,3736.00
2022-11-05T12:39:47.000Z,3184.00